createdAt,value
2022-11-28T00:01:47.167Z,102376.91
2022-11-28T00:04:16.222Z,102372.56
2022-11-28T00:06:46.689Z,102371.66
2022-11-28T00:09:16.559Z,102369.06
2022-11-28T00:11:48.760Z,102374.34
2022-11-28T00:14:18.633Z,102371.59
2022-11-28T00:16:47.479Z,102365.53
2022-11-28T00:19:16.349Z,102374.34
2022-11-28T00:21:44.912Z,102377.84
2022-11-28T00:24:13.538Z,102379.50
2022-11-28T00:26:43.158Z,102379.41
2022-11-28T00:29:13.292Z,102375.81
2022-11-28T00:31:44.291Z,102375.88
2022-11-28T00:34:14.712Z,102371.53
2022-11-28T00:36:45.309Z,102374.94
2022-11-28T00:39:14.198Z,102375.03
2022-11-28T00:41:43.319Z,102379.38
2022-11-28T00:44:13.809Z,102372.44
2022-11-28T00:46:42.601Z,102378.38
2022-11-28T00:49:11.563Z,102382.53
2022-11-28T00:51:40.066Z,102381.75
2022-11-28T00:54:09.224Z,102379.25
2022-11-28T00:56:40.025Z,102374.84
2022-11-28T00:59:09.821Z,102374.09
2022-11-28T01:01:42.534Z,102375.94
2022-11-28T01:04:13.917Z,102374.22
2022-11-28T01:06:44.834Z,102375.16
2022-11-28T01:09:15.464Z,102376.91
2022-11-28T01:11:45.135Z,102373.41
2022-11-28T01:14:14.700Z,102370.84
2022-11-28T01:16:45.083Z,102367.34
2022-11-28T01:19:14.923Z,102369.06
2022-11-28T01:21:43.761Z,102373.47
2022-11-28T01:24:15.295Z,102365.56
2022-11-28T01:26:44.293Z,102367.34
2022-11-28T01:29:13.156Z,102364.63
2022-11-28T01:31:42.187Z,102354.13
2022-11-28T01:34:12.402Z,102364.69
2022-11-28T01:36:41.034Z,102363.84
2022-11-28T01:39:10.733Z,102360.28
2022-11-28T01:41:39.904Z,102359.41
2022-11-28T01:44:30.572Z,102351.50
2022-11-28T01:46:59.223Z,102354.91
2022-11-28T01:49:33.159Z,102353.94
2022-11-28T01:52:05.208Z,102359.34
2022-11-28T01:54:35.770Z,102354.94
2022-11-28T01:57:08.376Z,102356.56
2022-11-28T01:59:43.561Z,102350.31
2022-11-28T02:02:19.709Z,102354.75
2022-11-28T02:04:51.786Z,102356.66
2022-11-28T02:07:21.056Z,102354.78
2022-11-28T02:09:49.619Z,102351.19
2022-11-28T02:12:30.153Z,102349.63
2022-11-28T02:15:14.445Z,102350.50
2022-11-28T02:17:57.115Z,102345.28
2022-11-28T02:21:00.186Z,102350.63
2022-11-28T02:23:39.430Z,102349.53
2022-11-28T02:26:33.748Z,102344.41
2022-11-28T02:29:34.543Z,102342.66
2022-11-28T02:32:16.288Z,102338.31
2022-11-28T02:34:52.300Z,102340.06
2022-11-28T02:37:28.015Z,102335.63
2022-11-28T02:40:07.492Z,102326.78
2022-11-28T02:42:46.114Z,102331.13
2022-11-28T02:45:22.055Z,102332.06
2022-11-28T02:47:59.095Z,102331.16
2022-11-28T02:50:33.725Z,102331.94
2022-11-28T02:53:08.022Z,102328.44
2022-11-28T02:55:40.431Z,102330.28
2022-11-28T02:58:10.516Z,102329.31
2022-11-28T03:00:41.016Z,102325.66
2022-11-28T03:03:44.643Z,102321.34
2022-11-28T03:06:23.195Z,102320.59
2022-11-28T03:09:07.885Z,102323.22
2022-11-28T03:11:51.171Z,102323.22
2022-11-28T03:14:30.131Z,102323.41
2022-11-28T03:17:09.324Z,102331.34
2022-11-28T03:19:42.980Z,102336.50
2022-11-28T03:22:19.029Z,102335.56
2022-11-28T03:24:52.139Z,102339.13
2022-11-28T03:27:27.635Z,102334.72
2022-11-28T03:29:58.978Z,102341.00
2022-11-28T03:32:32.368Z,102346.31
2022-11-28T03:35:07.587Z,102342.69
2022-11-28T03:37:41.556Z,102340.88
2022-11-28T03:40:15.304Z,102345.28
2022-11-28T03:42:48.839Z,102340.97
2022-11-28T03:45:22.922Z,102353.19
2022-11-28T03:47:58.527Z,102340.97
2022-11-28T03:50:35.695Z,102338.41
2022-11-28T03:53:09.804Z,102342.75
2022-11-28T03:55:43.557Z,102340.00
2022-11-28T03:58:18.444Z,102337.28
2022-11-28T04:01:01.648Z,102335.44
2022-11-28T04:03:42.781Z,102330.22
2022-11-28T04:06:22.245Z,102334.63
2022-11-28T04:08:58.783Z,102328.38
2022-11-28T04:11:32.704Z,102327.44
2022-11-28T04:14:06.880Z,102327.56
2022-11-28T04:16:39.939Z,102323.16
2022-11-28T04:19:18.288Z,102322.16
2022-11-28T04:21:55.868Z,102325.94
2022-11-28T04:24:28.947Z,102328.56
2022-11-28T04:27:02.342Z,102330.44
2022-11-28T04:29:38.963Z,102332.13
2022-11-28T04:32:12.222Z,102334.75
2022-11-28T04:34:46.747Z,102328.56
2022-11-28T04:37:22.055Z,102336.31
2022-11-28T04:39:51.959Z,102329.44
2022-11-28T04:42:24.109Z,102327.66
2022-11-28T04:44:57.229Z,102326.72
2022-11-28T04:47:27.400Z,102325.88
2022-11-28T04:49:56.920Z,102334.78
2022-11-28T04:52:38.848Z,102328.50
2022-11-28T04:55:20.834Z,102339.94
2022-11-28T04:57:59.290Z,102339.16
2022-11-28T05:00:28.752Z,102339.00
2022-11-28T05:02:58.530Z,102339.84
2022-11-28T05:05:31.442Z,102340.66
2022-11-28T05:08:01.988Z,102335.44
2022-11-28T05:10:34.059Z,102337.47
2022-11-28T05:13:06.266Z,102333.09
2022-11-28T05:15:35.966Z,102331.34
2022-11-28T05:18:05.727Z,102330.53
2022-11-28T05:20:35.207Z,102333.84
2022-11-28T05:23:09.126Z,102339.88
2022-11-28T05:25:40.186Z,102329.44
2022-11-28T05:28:10.606Z,102333.19
2022-11-28T05:30:40.844Z,102337.47
2022-11-28T05:33:09.727Z,102333.19
2022-11-28T05:35:41.020Z,102334.94
2022-11-28T05:38:13.801Z,102333.09
2022-11-28T05:40:44.673Z,102328.75
2022-11-28T05:43:16.780Z,102339.16
2022-11-28T05:45:47.078Z,102338.41
2022-11-28T05:48:16.040Z,102340.97
2022-11-28T05:50:45.042Z,102351.19
2022-11-28T05:53:16.129Z,102348.78
2022-11-28T05:55:44.832Z,102347.78
2022-11-28T05:58:23.038Z,102345.22
2022-11-28T06:00:52.145Z,102350.38
2022-11-28T06:03:21.004Z,102349.75
2022-11-28T06:05:49.968Z,102347.06
2022-11-28T06:08:20.348Z,102353.13
2022-11-28T06:10:58.363Z,102342.69
2022-11-28T06:13:33.381Z,102355.03
2022-11-28T06:16:02.372Z,102359.34
2022-11-28T06:18:32.990Z,102355.84
2022-11-28T06:21:03.664Z,102355.31
2022-11-28T06:23:37.360Z,102357.81
2022-11-28T06:26:08.324Z,102361.38
2022-11-28T06:28:38.025Z,102359.38
2022-11-28T06:31:12.507Z,102356.81
2022-11-28T06:33:41.591Z,102364.88
2022-11-28T06:36:16.562Z,102368.50
2022-11-28T06:38:48.359Z,102356.94
2022-11-28T06:41:23.182Z,102359.59
2022-11-28T06:43:56.447Z,102360.53
2022-11-28T06:46:25.680Z,102372.94
2022-11-28T06:48:54.642Z,102361.50
2022-11-28T06:51:25.266Z,102363.16
2022-11-28T06:53:57.221Z,102350.06
2022-11-28T06:56:28.423Z,102358.78
2022-11-28T06:59:03.024Z,102356.16
2022-11-28T07:01:40.915Z,102348.19
2022-11-28T07:04:30.987Z,102333.34
2022-11-28T07:07:03.330Z,102332.44
2022-11-28T07:09:38.288Z,102350.03
2022-11-28T07:12:07.475Z,102350.13
2022-11-28T07:14:36.884Z,102344.84
2022-11-28T07:17:08.560Z,102338.63
2022-11-28T07:19:37.544Z,102352.66
2022-11-28T07:22:09.522Z,102351.91
2022-11-28T07:24:42.882Z,102346.38
2022-11-28T07:27:11.954Z,102343.75
2022-11-28T07:29:41.723Z,102349.75
2022-11-28T07:32:12.626Z,102347.13
2022-11-28T07:34:44.615Z,102351.63
2022-11-28T07:37:16.971Z,102344.66
2022-11-28T07:39:47.800Z,102350.97
2022-11-28T07:42:16.822Z,102359.53
2022-11-28T07:44:57.702Z,102353.41
2022-11-28T07:47:26.648Z,102355.94
2022-11-28T07:49:55.625Z,102359.66
2022-11-28T07:52:24.443Z,102353.38
2022-11-28T07:54:54.981Z,102357.03
2022-11-28T07:57:23.812Z,102360.53
2022-11-28T07:59:52.353Z,102357.03
2022-11-28T08:02:21.366Z,102351.91
2022-11-28T08:04:54.927Z,102351.78
2022-11-28T08:07:24.103Z,102354.38
2022-11-28T08:09:55.169Z,102343.75
2022-11-28T08:12:26.675Z,102360.63
2022-11-28T08:14:55.642Z,102353.41
2022-11-28T08:17:24.493Z,102353.50
2022-11-28T08:19:56.673Z,102362.28
2022-11-28T08:22:25.663Z,102361.38
2022-11-28T08:24:56.032Z,102357.75
2022-11-28T08:27:25.204Z,102365.81
2022-11-28T08:29:54.341Z,102354.13
2022-11-28T08:32:23.492Z,102365.50
2022-11-28T08:34:52.685Z,102351.53
2022-11-28T08:37:21.631Z,102360.22
2022-11-28T08:39:50.928Z,102364.50
2022-11-28T08:42:21.575Z,102357.38
2022-11-28T08:44:53.318Z,102363.03
2022-11-28T08:47:22.447Z,102363.75
2022-11-28T08:49:51.277Z,102367.19
2022-11-28T08:52:20.320Z,102372.50
2022-11-28T08:54:49.520Z,102367.94
2022-11-28T08:57:21.354Z,102376.59
2022-11-28T08:59:50.260Z,102367.09
2022-11-28T09:02:24.506Z,102370.66
2022-11-28T09:04:54.913Z,102371.41
2022-11-28T09:07:23.936Z,102370.66
2022-11-28T09:09:52.806Z,102371.50
2022-11-28T09:12:26.433Z,102384.06
2022-11-28T09:14:55.140Z,102378.50
2022-11-28T09:17:24.000Z,102381.09
2022-11-28T09:19:53.008Z,102380.28
2022-11-28T09:22:21.983Z,102382.88
2022-11-28T09:24:51.017Z,102377.59
2022-11-28T09:27:19.900Z,102366.94
2022-11-28T09:29:50.543Z,102369.44
2022-11-28T09:32:19.500Z,102377.22
2022-11-28T09:34:48.429Z,102377.34
2022-11-28T09:37:17.143Z,102372.97
2022-11-28T09:40:11.675Z,102376.34
2022-11-28T09:42:43.382Z,102375.34
2022-11-28T09:45:18.655Z,102373.81
2022-11-28T09:48:02.120Z,102358.97
2022-11-28T09:50:37.335Z,102373.03
2022-11-28T09:53:20.562Z,102374.75
2022-11-28T09:55:53.875Z,102375.63
2022-11-28T09:58:29.727Z,102374.03
2022-11-28T10:01:08.383Z,102377.59
2022-11-28T10:03:44.220Z,102375.53
2022-11-28T10:06:22.411Z,102376.59
2022-11-28T10:09:29.550Z,102381.63
2022-11-28T10:12:17.042Z,102374.09
2022-11-28T10:14:59.081Z,102375.94
2022-11-28T10:17:45.502Z,102380.44
2022-11-28T10:20:20.635Z,102362.75
2022-11-28T10:22:55.145Z,102363.41
2022-11-28T10:25:30.869Z,102362.41
2022-11-28T10:28:00.033Z,102361.53
2022-11-28T10:30:34.219Z,102365.34
2022-11-28T10:33:14.865Z,102356.53
2022-11-28T10:35:49.150Z,102367.09
2022-11-28T10:38:21.240Z,102363.59
2022-11-28T10:40:56.695Z,102359.16
2022-11-28T10:43:48.911Z,102357.13
2022-11-28T10:46:46.369Z,102359.16
2022-11-28T10:49:40.615Z,102366.97
2022-11-28T10:52:19.849Z,102358.78
2022-11-28T10:55:07.610Z,102361.53
2022-11-28T10:57:48.467Z,102355.53
2022-11-28T11:00:19.775Z,102358.69
2022-11-28T11:02:51.950Z,102356.31
2022-11-28T11:05:30.116Z,102362.28
2022-11-28T11:08:01.519Z,102364.19
2022-11-28T11:10:35.726Z,102372.19
2022-11-28T11:13:15.976Z,102357.19
2022-11-28T11:15:49.190Z,102355.47
2022-11-28T11:18:25.583Z,102358.22
2022-11-28T11:21:10.037Z,102357.25
2022-11-28T11:23:38.967Z,102365.03
2022-11-28T11:26:10.708Z,102368.41
2022-11-28T11:28:45.289Z,102368.34
2022-11-28T11:31:21.118Z,102367.69
2022-11-28T11:33:55.075Z,102367.47
2022-11-28T11:36:32.347Z,102375.25
2022-11-28T11:39:17.219Z,102374.75
2022-11-28T11:41:47.612Z,102363.09
2022-11-28T11:44:34.685Z,102364.84
2022-11-28T11:47:08.032Z,102376.41
2022-11-28T11:49:38.312Z,102378.13
2022-11-28T11:52:21.488Z,102377.19
2022-11-28T11:55:02.644Z,102379.91
2022-11-28T11:57:34.834Z,102377.38
2022-11-28T12:00:08.622Z,102384.38
2022-11-28T12:02:45.972Z,102383.56
2022-11-28T12:05:18.681Z,102381.69
2022-11-28T12:07:55.555Z,102380.81
2022-11-28T12:10:27.925Z,102386.91
2022-11-28T12:12:57.067Z,102380.03
2022-11-28T12:15:36.689Z,102394.91
2022-11-28T12:18:25.532Z,102393.28
2022-11-28T12:21:26.944Z,102391.34
2022-11-28T12:24:15.722Z,102391.28
2022-11-28T12:26:50.051Z,102390.53
2022-11-28T12:29:47.317Z,102388.66
2022-11-28T12:32:30.364Z,102395.59
2022-11-28T12:35:17.702Z,102394.84
2022-11-28T12:38:13.051Z,102397.28
2022-11-28T12:40:57.461Z,102396.56
2022-11-28T12:43:38.889Z,102395.84
2022-11-28T12:46:17.057Z,102392.19
2022-11-28T12:49:04.591Z,102392.47
2022-11-28T12:51:47.741Z,102388.91
2022-11-28T12:54:36.080Z,102398.34
2022-11-28T12:57:34.527Z,102387.84
2022-11-28T13:00:08.944Z,102396.72
2022-11-28T13:02:51.469Z,102400.25
2022-11-28T13:05:30.058Z,102398.47
2022-11-28T13:08:23.309Z,102393.06
2022-11-28T13:10:58.181Z,102400.00
2022-11-28T13:13:34.170Z,102409.91
2022-11-28T13:16:13.437Z,102412.75
2022-11-28T13:18:47.666Z,102402.06
2022-11-28T13:21:26.527Z,102413.38
2022-11-28T13:24:06.914Z,102410.19
2022-11-28T13:26:50.330Z,102407.25
2022-11-28T13:29:28.707Z,102415.22
2022-11-28T13:32:06.066Z,102419.50
2022-11-28T13:34:36.207Z,102402.78
2022-11-28T13:40:08.046Z,102418.66
2022-11-28T13:43:03.439Z,102412.63
2022-11-28T13:45:39.208Z,102415.16
2022-11-28T13:51:39.862Z,102411.72
2022-11-28T13:54:46.412Z,102417.19
2022-11-28T13:57:25.445Z,102408.00
2022-11-28T13:59:59.090Z,102420.69
2022-11-28T14:02:37.057Z,102420.56
2022-11-28T14:05:21.428Z,102428.41
2022-11-28T14:07:55.908Z,102425.00
2022-11-28T14:10:39.067Z,102431.88
2022-11-28T14:13:32.572Z,102429.41
2022-11-28T14:16:11.917Z,102435.25
2022-11-28T14:19:01.908Z,102430.94
2022-11-28T14:21:40.268Z,102430.06
2022-11-28T14:24:19.527Z,102425.78
2022-11-28T14:26:50.486Z,102431.00
2022-11-28T14:29:24.383Z,102425.72
2022-11-28T14:32:27.795Z,102433.84
2022-11-28T14:34:49.026Z,102431.13
2022-11-28T14:37:53.193Z,102439.13
2022-11-28T14:41:12.282Z,102434.63
2022-11-28T14:43:44.048Z,102429.53
2022-11-28T14:46:33.002Z,102425.03
2022-11-28T14:49:33.888Z,102428.50
2022-11-28T14:52:38.875Z,102436.66
2022-11-28T14:55:21.131Z,102446.31
2022-11-28T14:57:57.057Z,102438.28
2022-11-28T15:00:31.073Z,102440.91
2022-11-28T15:03:22.735Z,102439.19
2022-11-28T15:05:53.930Z,102439.06
2022-11-28T15:08:39.501Z,102446.31
2022-11-28T15:11:25.512Z,102440.91
2022-11-28T15:14:11.670Z,102447.91
2022-11-28T15:16:49.823Z,102450.56
2022-11-28T15:19:40.892Z,102443.50
2022-11-28T15:22:37.895Z,102447.09
2022-11-28T15:25:21.921Z,102435.53
2022-11-28T15:27:53.267Z,102434.78
2022-11-28T15:30:27.766Z,102447.84
2022-11-28T15:33:00.667Z,102439.19
2022-11-28T15:35:31.211Z,102445.41
2022-11-28T15:38:01.826Z,102447.19
2022-11-28T15:40:35.749Z,102448.94
2022-11-28T15:43:12.761Z,102447.97
2022-11-28T15:45:43.129Z,102439.59
2022-11-28T15:48:30.387Z,102457.25
2022-11-28T15:51:04.868Z,102459.22
2022-11-28T15:53:34.785Z,102460.97
2022-11-28T15:56:15.528Z,102461.94
2022-11-28T15:58:47.966Z,102464.41
2022-11-28T16:01:22.081Z,102455.97
2022-11-28T16:03:57.262Z,102460.09
2022-11-28T16:06:30.216Z,102458.59
2022-11-28T16:09:06.849Z,102467.28
2022-11-28T16:11:37.818Z,102466.41
2022-11-28T16:14:10.663Z,102464.66
2022-11-28T16:16:40.606Z,102456.69
2022-11-28T16:19:22.041Z,102464.66
2022-11-28T16:21:55.178Z,102459.28
2022-11-28T16:24:35.336Z,102459.41
2022-11-28T16:27:08.623Z,102464.72
2022-11-28T16:29:38.000Z,102461.09
2022-11-28T16:32:11.261Z,102461.19
2022-11-28T16:34:47.183Z,102468.91
2022-11-28T16:37:20.722Z,102464.69
2022-11-28T16:39:59.843Z,102464.81
2022-11-28T16:42:31.005Z,102466.41
2022-11-28T16:45:07.423Z,102467.28
2022-11-28T16:47:37.383Z,102462.00
2022-11-28T16:50:18.189Z,102458.38
2022-11-28T16:52:59.505Z,102464.69
2022-11-28T16:55:42.562Z,102467.28
2022-11-28T16:58:15.256Z,102475.16
2022-11-28T17:00:47.935Z,102462.91
2022-11-28T17:03:43.879Z,102464.44
2022-11-28T17:06:21.118Z,102460.22
2022-11-28T17:08:50.044Z,102455.06
2022-11-28T17:11:21.224Z,102454.75
2022-11-28T17:13:51.884Z,102454.78
2022-11-28T17:16:22.670Z,102453.28
2022-11-28T17:18:52.102Z,102457.50
2022-11-28T17:21:33.316Z,102452.41
2022-11-28T17:24:02.121Z,102453.31
2022-11-28T17:26:30.667Z,102450.56
2022-11-28T17:29:00.855Z,102456.03
2022-11-28T17:31:29.404Z,102460.44
2022-11-28T17:33:57.857Z,102456.88
2022-11-28T17:36:26.542Z,102457.69
2022-11-28T17:38:54.991Z,102457.63
2022-11-28T17:41:23.568Z,102453.94
2022-11-28T17:43:52.050Z,102451.31
2022-11-28T17:46:22.724Z,102456.66
2022-11-28T17:48:51.340Z,102461.81
2022-11-28T17:51:20.498Z,102463.53
2022-11-28T17:53:49.419Z,102451.09
2022-11-28T17:56:18.283Z,102460.63
2022-11-28T17:58:46.908Z,102458.91
2022-11-28T18:01:21.029Z,102455.47
2022-11-28T18:03:51.196Z,102468.75
2022-11-28T18:06:21.363Z,102465.84
2022-11-28T18:08:51.333Z,102468.56
2022-11-28T18:11:21.628Z,102461.53
2022-11-28T18:13:50.452Z,102462.34
2022-11-28T18:16:22.344Z,102459.03
2022-11-28T18:18:52.942Z,102459.97
2022-11-28T18:21:22.040Z,102458.09
2022-11-28T18:23:51.378Z,102454.47
2022-11-28T18:26:23.112Z,102459.84
2022-11-28T18:28:52.930Z,102462.41
2022-11-28T18:31:25.568Z,102459.81
2022-11-28T18:34:01.639Z,102458.00
2022-11-28T18:36:36.243Z,102463.19
2022-11-28T18:39:07.970Z,102460.63
2022-11-28T18:41:36.902Z,102457.06
2022-11-28T18:44:07.142Z,102456.06
2022-11-28T18:46:43.419Z,102463.06
2022-11-28T18:49:16.933Z,102460.50
2022-11-28T18:51:45.774Z,102468.34
2022-11-28T18:54:20.573Z,102468.22
2022-11-28T18:56:53.252Z,102468.00
2022-11-28T18:59:22.515Z,102461.13
2022-11-28T19:01:51.582Z,102467.31
2022-11-28T19:04:22.274Z,102471.81
2022-11-28T19:06:51.313Z,102462.88
2022-11-28T19:09:23.236Z,102464.78
2022-11-28T19:11:52.109Z,102468.28
2022-11-28T19:14:21.414Z,102478.94
2022-11-28T19:16:53.921Z,102478.94
2022-11-28T19:19:24.781Z,102483.34
2022-11-28T19:21:53.434Z,102484.16
2022-11-28T19:24:22.378Z,102484.25
2022-11-28T19:26:52.040Z,102487.78
2022-11-28T19:29:20.876Z,102483.22
2022-11-28T19:31:50.686Z,102486.75
2022-11-28T19:34:20.580Z,102489.53
2022-11-28T19:36:52.462Z,102497.38
2022-11-28T19:39:24.582Z,102487.63
2022-11-28T19:41:55.732Z,102487.63
2022-11-28T19:44:29.084Z,102491.19
2022-11-28T19:46:58.947Z,102490.25
2022-11-28T19:49:27.469Z,102491.16
2022-11-28T19:52:00.340Z,102482.25
2022-11-28T19:54:29.453Z,102491.09
2022-11-28T19:56:58.331Z,102499.00
2022-11-28T19:59:30.751Z,102490.28
2022-11-28T20:02:02.602Z,102500.03
2022-11-28T20:04:34.581Z,102508.84
2022-11-28T20:07:04.761Z,102503.50
2022-11-28T20:09:33.737Z,102509.56
2022-11-28T20:12:02.534Z,102513.13
2022-11-28T20:14:33.306Z,102514.88
2022-11-28T20:17:02.184Z,102513.88
2022-11-28T20:19:31.411Z,102519.16
2022-11-28T20:22:01.439Z,102513.06
2022-11-28T20:24:31.632Z,102512.09
2022-11-28T20:27:01.442Z,102518.16
2022-11-28T20:29:30.534Z,102509.31
2022-11-28T20:31:59.356Z,102519.03
2022-11-28T20:34:28.978Z,102505.72
2022-11-28T20:36:59.528Z,102511.22
2022-11-28T20:39:28.152Z,102517.22
2022-11-28T20:42:01.105Z,102511.94
2022-11-28T20:44:29.848Z,102513.66
2022-11-28T20:46:58.949Z,102519.75
2022-11-28T20:49:27.708Z,102521.69
2022-11-28T20:51:56.782Z,102519.75
2022-11-28T20:54:29.447Z,102524.03
2022-11-28T20:59:50.790Z,102532.78
2022-11-28T21:02:19.563Z,102533.84
2022-11-28T21:04:48.260Z,102537.06
2022-11-28T21:07:18.789Z,102534.69
2022-11-28T21:09:47.923Z,102531.13
2022-11-28T21:12:22.810Z,102534.63
2022-11-28T21:14:54.713Z,102536.34
2022-11-28T21:17:23.749Z,102541.56
2022-11-28T21:19:52.595Z,102548.50
2022-11-28T21:22:21.951Z,102536.13
2022-11-28T21:24:51.534Z,102544.28
2022-11-28T21:27:26.842Z,102538.84
2022-11-28T21:29:56.172Z,102541.56
2022-11-28T21:32:25.107Z,102550.94
2022-11-28T21:35:04.227Z,102545.00
2022-11-28T21:37:33.965Z,102553.88
2022-11-28T21:40:03.007Z,102555.78
2022-11-28T21:42:33.710Z,102555.31
2022-11-28T21:45:03.129Z,102557.41
2022-11-28T21:47:33.522Z,102558.31
2022-11-28T21:50:02.306Z,102554.75
2022-11-28T21:52:31.722Z,102559.25
2022-11-28T21:55:01.922Z,102557.50
2022-11-28T21:57:30.961Z,102561.09
2022-11-28T22:00:04.563Z,102566.47
2022-11-28T22:02:46.691Z,102560.97
2022-11-28T22:05:17.360Z,102559.94
2022-11-28T22:07:46.461Z,102564.31
2022-11-28T22:10:15.566Z,102571.50
2022-11-28T22:12:44.984Z,102559.91
2022-11-28T22:15:15.580Z,102566.91
2022-11-28T22:17:44.690Z,102563.56
2022-11-28T22:20:14.389Z,102560.91
2022-11-28T22:22:43.463Z,102558.38
2022-11-28T22:25:12.906Z,102566.41
2022-11-28T22:27:41.830Z,102561.88
2022-11-28T22:30:11.822Z,102562.59
2022-11-28T22:32:42.204Z,102564.47
2022-11-28T22:35:11.627Z,102568.13
2022-11-28T22:37:40.948Z,102570.75
2022-11-28T22:40:12.344Z,102560.97
2022-11-28T22:42:41.455Z,102560.97
2022-11-28T22:45:11.281Z,102558.47
2022-11-28T22:47:41.902Z,102561.94
2022-11-28T22:50:11.787Z,102555.88
2022-11-28T22:52:40.821Z,102561.09
2022-11-28T22:55:10.308Z,102566.25
2022-11-28T22:57:39.306Z,102560.03
2022-11-28T23:00:12.081Z,102567.03
2022-11-28T23:02:42.702Z,102567.97
2022-11-28T23:05:11.808Z,102561.75
2022-11-28T23:07:40.487Z,102558.25
2022-11-28T23:10:10.461Z,102553.03
2022-11-28T23:12:40.876Z,102559.09
2022-11-28T23:15:10.805Z,102561.03
2022-11-28T23:17:39.424Z,102569.91
2022-11-28T23:20:10.870Z,102569.75
2022-11-28T23:22:39.411Z,102576.63
2022-11-28T23:25:09.252Z,102568.81
2022-11-28T23:27:37.798Z,102583.06
2022-11-28T23:30:07.832Z,102578.78
2022-11-28T23:32:36.478Z,102577.06
2022-11-28T23:35:05.839Z,102579.66
2022-11-28T23:37:38.818Z,102586.72
2022-11-28T23:40:08.722Z,102587.59
2022-11-28T23:42:37.352Z,102583.94
2022-11-28T23:45:07.016Z,102590.78
2022-11-28T23:47:35.595Z,102585.78
2022-11-28T23:50:04.663Z,102588.50
2022-11-28T23:52:33.281Z,102591.16
2022-11-28T23:55:03.490Z,102585.84
2022-11-28T23:57:32.085Z,102593.81
